This is the latest recevied weather packets stored in our database for station/object EA1GEC-10. If no packets are shown the sender has not sent any weather packets the latest 10 day(s).
| Time | Temp. | Humidity | Pressure | Rain* | Wind** | Luminosity | Snow |
|---|---|---|---|---|---|---|---|
| 1777986668 | 13.33° C | 56% | 1022.4 hPa | - | - | - | - |
| 1777985768 | 15.56° C | 49% | 1021.9 hPa | - | - | - | - |
| 1777984868 | 23.89° C | 51% | 1022.2 hPa | - | - | - | - |
| 1777983968 | 13.89° C | 64% | 1022.3 hPa | - | - | - | - |
| 1777983067 | 12.22° C | 64% | 1022.2 hPa | - | - | - | - |
| 1777982167 | 12.78° C | 62% | 1022.3 hPa | - | - | - | - |
| 1777981267 | 12.78° C | 62% | 1022.2 hPa | - | - | - | - |
| 1777980367 | 13.33° C | 60% | 1022.4 hPa | - | - | - | - |
| 1777979467 | 16.11° C | 58% | 1022.1 hPa | - | - | - | - |
| 1777978567 | 16.11° C | 61% | 1022.1 hPa | - | - | - | - |
| 1777977667 | 13.33° C | 64% | 1022.3 hPa | - | - | - | - |
| 1777976767 | 12.78° C | 63% | 1022.3 hPa | - | - | - | - |
| 1777975867 | 12.78° C | 63% | 1022.4 hPa | - | - | - | - |
| 1777974967 | 14.44° C | 64% | 1022.3 hPa | - | - | - | - |
| 1777974067 | 12.78° C | 66% | 1022.3 hPa | - | - | - | - |
| 1777973166 | 12.78° C | 67% | 1022.2 hPa | - | - | - | - |
| 1777972266 | 11.11° C | 69% | 1022.1 hPa | - | - | - | - |
| 1777971366 | 11.11° C | 69% | 1022.1 hPa | - | - | - | - |
| 1777970466 | 11.67° C | 69% | 1022 hPa | - | - | - | - |
| 1777969566 | 11.11° C | 70% | 1022.1 hPa | - | - | - | - |
| 1777968666 | 11.11° C | 71% | 1022 hPa | - | - | - | - |
| 1777967766 | 10.56° C | 71% | 1022 hPa | - | - | - | - |
| 1777966866 | 10.56° C | 71% | 1022 hPa | - | - | - | - |
| 1777965966 | 11.11° C | 71% | 1022 hPa | - | - | - | - |
| 1777965066 | 11.11° C | 72% | 1022.1 hPa | - | - | - | - |
* Rain since midnight (hover to see other rain measurements)
** Current wind speed in m/s (hover to see current wind gust speed)